Time;durP1;ratioP1;P1;durP2;ratioP2;P2;SDS_P1;SDS_P2;PMS_P1;PMS_P2;Temp;Humidity;BMP_temperature;BMP_pressure;BME280_temperature;BME280_humidity;BME280_pressure;Samples;Min_cycle;Max_cycle;Signal;HPM_P1;HPM_P2
2021/04/08 00:00:15;;;;;;;2.63;1.50;;;;;;;4.21;62.24;100797.75;698176;28;46473;-55
2021/04/08 00:00:36;;;;;;;3.40;1.63;;;;;;;4.20;62.22;100788.06;698604;28;1164;-55
2021/04/08 00:00:57;;;;;;;4.78;1.98;;;;;;;4.20;62.32;100793.41;699180;28;9678;-54
2021/04/08 00:01:19;;;;;;;3.88;1.98;;;;;;;4.19;62.27;100783.69;698958;28;24416;-53
2021/04/08 00:01:43;;;;;;;4.50;1.90;;;;;;;4.19;62.20;100793.53;699533;28;1156;-51
2021/04/08 00:02:04;;;;;;;4.57;1.70;;;;;;;4.20;62.11;100796.09;697638;28;46234;-54
2021/04/08 00:02:25;;;;;;;2.90;1.60;;;;;;;4.19;62.16;100804.25;698011;28;44398;-56
2021/04/08 00:02:47;;;;;;;4.18;1.70;;;;;;;4.20;62.35;100811.25;699333;28;23425;-53
2021/04/08 00:03:08;;;;;;;3.40;1.70;;;;;;;4.17;62.33;100801.69;698392;28;46396;-51
2021/04/08 00:03:29;;;;;;;2.58;1.75;;;;;;;4.18;62.42;100800.69;699400;28;23539;-56
2021/04/08 00:03:50;;;;;;;2.53;1.70;;;;;;;4.18;62.44;100803.38;699324;28;21542;-52
2021/04/08 00:04:12;;;;;;;3.58;1.67;;;;;;;4.18;62.42;100795.34;697586;28;23220;-52
2021/04/08 00:04:33;;;;;;;5.40;1.70;;;;;;;4.18;62.48;100806.03;699344;28;5322;-54
2021/04/08 00:04:54;;;;;;;3.90;1.95;;;;;;;4.19;62.36;100799.72;699347;28;1002;-52
2021/04/08 00:05:15;;;;;;;4.53;1.83;;;;;;;4.19;62.54;100805.06;699417;28;21464;-51
2021/04/08 00:05:42;;;;;;;3.15;1.48;;;;;;;4.19;62.27;100798.91;697298;28;61482;-53
2021/04/08 00:06:04;;;;;;;3.90;1.60;;;;;;;4.19;62.32;100806.91;698470;28;1927;-51
2021/04/08 00:06:25;;;;;;;3.97;1.77;;;;;;;4.18;62.50;100805.22;698587;28;40790;-57
2021/04/08 00:06:47;;;;;;;2.85;1.80;;;;;;;4.20;62.34;100798.75;699469;28;1044;-50
2021/04/08 00:07:09;;;;;;;2.60;1.50;;;;;;;4.18;62.50;100799.84;699491;28;875;-53
2021/04/08 00:07:35;;;;;;;2.35;1.73;;;;;;;4.21;62.38;100805.78;697994;28;37995;-52
2021/04/08 00:07:56;;;;;;;4.03;1.70;;;;;;;4.26;62.09;100806.25;695013;28;46400;-52
2021/04/08 00:08:18;;;;;;;4.70;1.60;;;;;;;4.34;61.77;100813.56;696569;28;928;-53
2021/04/08 00:08:39;;;;;;;2.28;1.40;;;;;;;4.35;61.66;100807.25;697408;28;21042;-57
2021/04/08 00:09:04;;;;;;;2.75;1.65;;;;;;;4.35;61.61;100809.09;698805;28;15050;-54
2021/04/08 00:09:26;;;;;;;2.85;1.70;;;;;;;4.30;61.64;100804.97;697495;28;45278;-50
2021/04/08 00:09:47;;;;;;;3.97;1.50;;;;;;;4.30;61.69;100807.66;698409;28;46350;-50
2021/04/08 00:10:10;;;;;;;4.78;1.70;;;;;;;4.29;61.62;100815.81;699332;28;21559;-51
2021/04/08 00:10:32;;;;;;;4.72;2.08;;;;;;;4.28;61.80;100811.47;698042;28;50168;-50
2021/04/08 00:10:53;;;;;;;4.38;2.03;;;;;;;4.28;61.73;100811.47;698089;28;42115;-56
2021/04/08 00:11:14;;;;;;;6.78;2.17;;;;;;;4.26;61.87;100800.03;698648;28;21551;-52
2021/04/08 00:11:35;;;;;;;3.75;2.00;;;;;;;4.25;61.96;100814.41;699934;28;893;-54
2021/04/08 00:11:57;;;;;;;5.38;2.05;;;;;;;4.26;61.88;100808.91;699251;28;24424;-50
2021/04/08 00:12:18;;;;;;;6.32;1.85;;;;;;;4.24;61.86;100810.84;698117;28;44421;-56
2021/04/08 00:12:40;;;;;;;2.97;1.65;;;;;;;4.25;61.92;100811.72;698013;28;22394;-55
2021/04/08 00:13:01;;;;;;;2.75;1.63;;;;;;;4.23;61.66;100792.28;698150;28;46295;-53
2021/04/08 00:13:23;;;;;;;6.03;1.90;;;;;;;4.27;61.63;100810.59;699145;28;23723;-55
2021/04/08 00:13:44;;;;;;;4.93;2.10;;;;;;;4.28;61.70;100814.97;699300;28;22519;-52
2021/04/08 00:14:05;;;;;;;3.30;1.88;;;;;;;4.29;61.67;100811.28;698090;28;46255;-52
2021/04/08 00:14:27;;;;;;;4.70;1.90;;;;;;;4.30;61.60;100810.31;698479;28;22599;-50
2021/04/08 00:14:48;;;;;;;2.92;1.80;;;;;;;4.28;61.57;100809.63;699586;28;21765;-52
2021/04/08 00:15:11;;;;;;;4.25;1.77;;;;;;;4.27;61.49;100815.94;698280;28;21550;-56
2021/04/08 00:15:33;;;;;;;3.20;1.50;;;;;;;4.29;61.62;100811.28;699282;28;15027;-54
2021/04/08 00:15:54;;;;;;;4.72;1.85;;;;;;;4.29;61.53;100802.44;697579;28;22426;-54
2021/04/08 00:16:16;;;;;;;2.75;1.70;;;;;;;4.27;61.54;100807.09;699620;28;1273;-53
2021/04/08 00:16:45;;;;;;;3.83;1.90;;;;;;;4.24;61.71;100813.53;697538;28;60660;-55
2021/04/08 00:17:07;;;;;;;1.75;1.65;;;;;;;4.24;61.71;100810.84;699727;28;870;-54
2021/04/08 00:17:28;;;;;;;2.40;1.70;;;;;;;4.25;61.84;100803.72;699579;28;1459;-51
2021/04/08 00:17:50;;;;;;;5.32;2.08;;;;;;;4.28;61.68;100822.16;698793;28;17711;-54
2021/04/08 00:18:12;;;;;;;3.90;2.20;;;;;;;4.31;61.58;100817.38;698483;28;46404;-55
2021/04/08 00:18:33;;;;;;;4.72;2.00;;;;;;;4.37;61.31;100812.47;698538;28;17725;-52
2021/04/08 00:18:54;;;;;;;4.85;1.80;;;;;;;4.36;61.16;100816.97;698616;28;12207;-53
2021/04/08 00:19:15;;;;;;;4.32;1.90;;;;;;;4.35;61.31;100814.44;698306;28;23501;-53
2021/04/08 00:19:36;;;;;;;5.38;2.00;;;;;;;4.32;61.31;100821.72;698598;28;22386;-52
2021/04/08 00:19:58;;;;;;;4.20;1.83;;;;;;;4.31;61.35;100819.19;699220;28;14210;-52
2021/04/08 00:20:20;;;;;;;3.17;1.73;;;;;;;4.29;61.36;100815.81;698183;28;46318;-51
2021/04/08 00:20:41;;;;;;;4.75;2.10;;;;;;;4.29;61.49;100813.13;698402;28;45829;-53
2021/04/08 00:21:02;;;;;;;3.47;1.98;;;;;;;4.28;61.57;100819.47;698716;28;21762;-53
2021/04/08 00:21:23;;;;;;;3.92;2.00;;;;;;;4.27;61.60;100821.28;698504;28;24407;-56
2021/04/08 00:21:45;;;;;;;2.60;1.70;;;;;;;4.27;61.59;100823.13;698702;28;22461;-54
2021/04/08 00:22:06;;;;;;;2.60;1.73;;;;;;;4.28;61.65;100824.81;698246;28;45245;-55
2021/04/08 00:22:27;;;;;;;6.15;2.08;;;;;;;4.27;61.58;100828.47;699326;28;1439;-55
2021/04/08 00:22:48;;;;;;;6.40;2.05;;;;;;;4.26;61.58;100819.63;697935;28;22397;-52
2021/04/08 00:23:10;;;;;;;2.65;1.83;;;;;;;4.25;61.69;100817.06;699019;28;22434;-54
2021/04/08 00:23:31;;;;;;;3.88;2.03;;;;;;;4.25;61.70;100825.09;698992;28;21601;-52
2021/04/08 00:23:52;;;;;;;4.70;2.00;;;;;;;4.25;61.66;100822.41;699558;28;13509;-51
2021/04/08 00:24:14;;;;;;;2.28;1.65;;;;;;;4.26;61.57;100822.28;698636;28;24411;-52
2021/04/08 00:24:35;;;;;;;4.82;2.05;;;;;;;4.27;61.54;100821.28;698048;28;41653;-55
2021/04/08 00:24:57;;;;;;;4.82;2.03;;;;;;;4.30;61.36;100818.34;698243;28;46325;-50
2021/04/08 00:25:18;;;;;;;2.78;2.08;;;;;;;4.30;61.41;100821.03;699254;28;22391;-50
2021/04/08 00:25:39;;;;;;;6.75;2.05;;;;;;;4.28;61.40;100814.97;698305;28;23469;-58
2021/04/08 00:26:00;;;;;;;5.22;1.90;;;;;;;4.28;61.50;100820.31;698702;28;21493;-51
2021/04/08 00:26:21;;;;;;;2.38;1.80;;;;;;;4.27;61.56;100829.31;697684;28;47212;-49
2021/04/08 00:26:43;;;;;;;2.78;1.90;;;;;;;4.26;61.68;100819.63;698911;28;21535;-52
2021/04/08 00:27:04;;;;;;;3.42;1.83;;;;;;;4.26;61.62;100822.28;698653;28;22436;-53
2021/04/08 00:27:25;;;;;;;5.60;2.10;;;;;;;4.27;61.74;100812.44;698163;28;46346;-52
2021/04/08 00:27:47;;;;;;;2.85;1.95;;;;;;;4.26;61.67;100818.75;699360;28;23454;-52
2021/04/08 00:28:08;;;;;;;2.60;2.03;;;;;;;4.25;61.51;100825.09;698998;28;23471;-54
2021/04/08 00:28:29;;;;;;;3.40;2.00;;;;;;;4.26;61.50;100824.09;699100;28;20802;-56
2021/04/08 00:28:50;;;;;;;5.20;2.05;;;;;;;4.27;61.51;100828.47;698937;28;23409;-50
2021/04/08 00:29:11;;;;;;;2.80;1.80;;;;;;;4.28;61.57;100823.00;698054;28;21467;-53
2021/04/08 00:29:33;;;;;;;3.35;1.88;;;;;;;4.26;61.70;100818.75;698819;28;21579;-49
2021/04/08 00:29:54;;;;;;;3.95;2.20;;;;;;;4.28;61.62;100823.00;698006;28;34858;-53
2021/04/08 00:30:16;;;;;;;4.07;2.00;;;;;;;4.28;61.52;100822.16;699050;28;15337;-56
2021/04/08 00:30:43;;;;;;;6.68;2.17;;;;;;;4.30;61.50;100820.19;697909;28;22148;-51
2021/04/08 00:31:04;;;;;;;5.57;2.00;;;;;;;4.32;61.34;100823.56;694757;28;137893;-52
2021/04/08 00:31:25;;;;;;;3.58;1.65;;;;;;;4.31;61.30;100808.47;698350;28;22384;-51
2021/04/08 00:31:46;;;;;;;3.05;1.80;;;;;;;4.30;61.28;100828.19;698979;28;21551;-57
2021/04/08 00:32:07;;;;;;;3.03;1.92;;;;;;;4.36;61.14;100835.69;699534;28;22745;-53
2021/04/08 00:32:30;;;;;;;3.90;2.15;;;;;;;4.39;61.00;100829.22;699654;28;1420;-55
2021/04/08 00:32:51;;;;;;;4.53;2.03;;;;;;;4.37;61.04;100825.84;699840;28;997;-50
2021/04/08 00:33:12;;;;;;;4.28;1.90;;;;;;;4.32;61.15;100820.88;698209;28;23049;-54
2021/04/08 00:33:34;;;;;;;3.40;1.70;;;;;;;4.32;61.34;100813.69;697299;28;47251;-54
2021/04/08 00:33:55;;;;;;;3.80;1.80;;;;;;;4.32;61.39;100824.41;699864;28;1133;-53
2021/04/08 00:34:18;;;;;;;5.15;2.13;;;;;;;4.31;61.34;100817.38;699336;28;4298;-55
2021/04/08 00:34:39;;;;;;;2.55;1.95;;;;;;;4.30;61.39;100818.34;698797;28;22139;-52
2021/04/08 00:35:00;;;;;;;3.83;1.80;;;;;;;4.28;61.46;100828.34;699500;28;21397;-52
2021/04/08 00:35:23;;;;;;;5.18;2.22;;;;;;;4.29;61.29;100823.81;699702;28;1024;-51
2021/04/08 00:35:44;;;;;;;4.63;2.10;;;;;;;4.29;61.38;100826.50;698897;28;904;-56
2021/04/08 00:36:07;;;;;;;5.47;2.20;;;;;;;4.29;61.48;100827.34;699321;28;886;-52
2021/04/08 00:36:28;;;;;;;4.25;1.98;;;;;;;4.29;61.32;100821.16;698236;28;46505;-51
2021/04/08 00:36:49;;;;;;;2.58;1.83;;;;;;;4.29;61.51;100829.19;698870;28;22406;-53
2021/04/08 00:37:10;;;;;;;3.30;1.80;;;;;;;4.28;61.49;100830.19;699053;28;19519;-53
2021/04/08 00:37:31;;;;;;;2.80;2.00;;;;;;;4.26;61.47;100827.63;697466;28;46387;-58
2021/04/08 00:37:53;;;;;;;3.83;2.00;;;;;;;4.26;61.52;100818.75;699813;28;11522;-53
2021/04/08 00:38:14;;;;;;;3.70;2.10;;;;;;;4.25;61.47;100827.75;699420;28;22446;-56
2021/04/08 00:38:35;;;;;;;4.53;2.22;;;;;;;4.27;61.57;100823.13;698840;28;23573;-54
2021/04/08 00:38:56;;;;;;;5.60;2.05;;;;;;;4.27;61.34;100826.63;697040;28;45258;-55
2021/04/08 00:39:18;;;;;;;5.30;2.10;;;;;;;4.27;61.50;100834.66;699135;28;23501;-56
2021/04/08 00:39:40;;;;;;;3.15;1.80;;;;;;;4.27;61.38;100840.00;698723;28;21754;-52
2021/04/08 00:40:01;;;;;;;2.60;2.00;;;;;;;4.27;61.46;100821.28;697225;28;47641;-54
2021/04/08 00:40:22;;;;;;;1.98;1.70;;;;;;;4.28;61.60;100830.19;698018;28;29410;-54
2021/04/08 00:40:44;;;;;;;2.33;1.63;;;;;;;4.26;61.38;100826.75;699079;28;13205;-55
2021/04/08 00:41:05;;;;;;;17.27;2.10;;;;;;;4.24;61.47;100836.75;699032;28;23546;-52
2021/04/08 00:41:26;;;;;;;19.55;2.20;;;;;;;4.26;61.43;100832.13;698276;28;46405;-55
2021/04/08 00:41:48;;;;;;;5.95;2.17;;;;;;;4.27;61.45;100844.50;698194;28;23530;-53
2021/04/08 00:42:09;;;;;;;4.88;2.20;;;;;;;4.30;61.28;100838.91;698202;28;45288;-54
2021/04/08 00:42:30;;;;;;;4.47;1.83;;;;;;;4.30;61.26;100838.91;698775;28;22925;-52
2021/04/08 00:42:51;;;;;;;3.10;2.00;;;;;;;4.30;61.30;100834.38;698816;28;12560;-53
2021/04/08 00:43:13;;;;;;;3.83;2.05;;;;;;;4.29;61.25;100835.34;699066;28;10906;-54
2021/04/08 00:43:34;;;;;;;4.88;1.88;;;;;;;4.30;61.27;100833.56;698127;28;33613;-52
2021/04/08 00:43:57;;;;;;;3.95;1.80;;;;;;;4.29;61.27;100838.03;698924;28;22401;-53
2021/04/08 00:44:18;;;;;;;3.95;1.92;;;;;;;4.28;61.21;100836.34;698451;28;25872;-54
2021/04/08 00:44:39;;;;;;;5.05;2.10;;;;;;;4.28;61.26;100835.53;699253;28;21553;-53
2021/04/08 00:45:00;;;;;;;2.47;1.90;;;;;;;4.30;61.27;100849.59;699198;28;23070;-53
2021/04/08 00:45:25;;;;;;;4.57;1.77;;;;;;;4.31;61.15;100829.88;697965;28;37760;-51
2021/04/08 00:45:46;;;;;;;5.20;1.80;;;;;;;4.32;61.00;100844.94;698420;28;2600;-53
2021/04/08 00:46:07;;;;;;;2.90;1.73;;;;;;;4.31;61.07;100845.91;698842;28;22400;-53
2021/04/08 00:46:28;;;;;;;3.22;1.98;;;;;;;4.29;60.98;100840.69;699107;28;14556;-55
2021/04/08 00:46:49;;;;;;;2.80;1.75;;;;;;;4.29;61.04;100842.53;697913;28;45278;-51
2021/04/08 00:47:11;;;;;;;3.60;1.83;;;;;;;4.29;61.04;100847.88;699902;28;881;-52
2021/04/08 00:47:35;;;;;;;4.90;2.10;;;;;;;4.28;61.10;100849.72;698663;28;1324;-50
2021/04/08 00:47:57;;;;;;;3.28;1.98;;;;;;;4.29;61.07;100848.72;699523;28;913;-52
2021/04/08 00:48:18;;;;;;;4.15;1.83;;;;;;;4.29;61.23;100845.22;698184;28;45358;-54
2021/04/08 00:48:40;;;;;;;5.00;2.00;;;;;;;4.28;61.14;100843.53;699664;28;1341;-54
2021/04/08 00:49:03;;;;;;;4.90;1.83;;;;;;;4.28;61.12;100844.38;697491;28;1304;-52
2021/04/08 00:49:24;;;;;;;4.13;1.85;;;;;;;4.29;61.04;100851.41;696873;28;23544;-53
2021/04/08 00:49:45;;;;;;;4.25;2.00;;;;;;;4.29;61.16;100854.06;695981;28;46262;-54
2021/04/08 00:50:07;;;;;;;3.75;2.10;;;;;;;4.33;60.82;100839.47;696510;28;23465;-51
2021/04/08 00:50:29;;;;;;;3.50;1.95;;;;;;;4.33;60.94;100838.63;694131;28;1145;-55
2021/04/08 00:50:50;;;;;;;5.05;1.90;;;;;;;4.32;60.88;100843.13;693504;28;14894;-52
2021/04/08 00:51:12;;;;;;;5.65;1.95;;;;;;;4.35;60.79;100851.88;693877;28;22468;-50
2021/04/08 00:51:33;;;;;;;5.20;2.03;;;;;;;4.35;60.69;100850.03;689841;28;46393;-50
2021/04/08 00:51:54;;;;;;;5.78;2.20;;;;;;;4.35;60.68;100849.19;691351;28;21522;-53
2021/04/08 00:52:16;;;;;;;3.38;2.10;;;;;;;4.33;60.72;100843.97;692071;28;20593;-51
2021/04/08 00:52:38;;;;;;;3.53;1.98;;;;;;;4.32;60.64;100858.31;696226;28;23445;-51
2021/04/08 00:53:01;;;;;;;4.78;1.90;;;;;;;4.32;60.74;100850.28;695078;28;65742;-52
2021/04/08 00:53:26;;;;;;;3.50;1.90;;;;;;;4.35;60.67;100849.19;695663;28;67515;-52
2021/04/08 00:53:47;;;;;;;3.40;2.28;;;;;;;4.35;60.56;100852.72;695954;28;115764;-55
2021/04/08 00:54:09;;;;;;;4.80;2.05;;;;;;;4.35;60.60;100854.53;700023;28;1044;-51
2021/04/08 00:54:30;;;;;;;4.95;2.10;;;;;;;4.31;60.71;100854.81;696278;28;46414;-52
2021/04/08 00:54:52;;;;;;;2.80;1.80;;;;;;;4.31;60.62;100851.25;697124;28;19625;-55
2021/04/08 00:55:13;;;;;;;4.18;1.88;;;;;;;4.29;60.75;100850.56;695996;28;21559;-57
2021/04/08 00:55:39;;;;;;;3.72;2.17;;;;;;;4.29;60.75;100848.72;695829;28;42514;-54
2021/04/08 00:56:01;;;;;;;4.13;1.67;;;;;;;4.27;60.89;100855.22;692577;28;137068;-53
2021/04/08 00:56:22;;;;;;;2.55;1.70;;;;;;;4.27;60.89;100852.53;695373;28;56015;-49
2021/04/08 00:56:43;;;;;;;2.13;1.92;;;;;;;4.24;60.82;100856.31;696491;28;24392;-52
2021/04/08 00:57:05;;;;;;;2.38;2.10;;;;;;;4.27;60.97;100858.72;696278;28;19719;-53
2021/04/08 00:57:26;;;;;;;3.22;1.80;;;;;;;4.25;60.81;100854.50;695950;28;43640;-55
2021/04/08 00:57:47;;;;;;;4.10;1.75;;;;;;;4.29;60.77;100850.56;696690;28;23498;-50
2021/04/08 00:58:09;;;;;;;5.35;2.00;;;;;;;4.30;60.81;100850.44;696654;28;23417;-53
2021/04/08 00:58:31;;;;;;;5.18;2.15;;;;;;;4.30;60.65;100841.56;695837;28;46330;-53
2021/04/08 00:58:52;;;;;;;4.63;2.40;;;;;;;4.27;60.59;100855.22;694282;28;17578;-53
2021/04/08 00:59:14;;;;;;;4.50;2.03;;;;;;;4.26;60.90;100857.03;695820;28;41377;-52
2021/04/08 00:59:36;;;;;;;3.55;2.22;;;;;;;4.25;60.67;100854.50;697224;28;1918;-49
2021/04/08 00:59:57;;;;;;;4.20;1.95;;;;;;;4.23;60.63;100854.63;695915;28;44523;-51
2021/04/08 01:00:18;;;;;;;2.67;1.88;;;;;;;4.24;60.82;100850.13;695860;28;17426;-56
2021/04/08 01:00:42;;;;;;;2.67;1.92;;;;;;;4.24;60.44;100852.81;696643;28;22477;-52
2021/04/08 01:01:04;;;;;;;2.40;1.70;;;;;;;4.24;60.75;100847.44;694154;28;93091;-53
2021/04/08 01:01:25;;;;;;;3.38;2.08;;;;;;;4.24;60.74;100855.47;696381;28;27782;-54
2021/04/08 01:01:46;;;;;;;4.75;2.40;;;;;;;4.23;60.79;100854.63;696714;28;23489;-57
2021/04/08 01:02:09;;;;;;;2.42;1.80;;;;;;;4.22;60.68;100852.09;696306;28;23405;-53
2021/04/08 01:02:30;;;;;;;4.03;1.88;;;;;;;4.22;60.76;100863.63;694898;28;69319;-51
2021/04/08 01:02:51;;;;;;;5.15;2.13;;;;;;;4.23;60.80;100862.66;697091;28;21582;-52
2021/04/08 01:03:13;;;;;;;3.35;1.80;;;;;;;4.21;60.87;100856.56;696944;28;21745;-54
2021/04/08 01:03:36;;;;;;;4.55;1.80;;;;;;;4.21;60.70;100853.91;695761;28;47460;-57
2021/04/08 01:03:57;;;;;;;4.82;1.70;;;;;;;4.22;60.77;100857.44;694941;28;68371;-50
2021/04/08 01:04:18;;;;;;;3.65;1.83;;;;;;;4.21;60.79;100853.91;696596;28;22389;-56
2021/04/08 01:04:39;;;;;;;3.42;1.90;;;;;;;4.22;60.75;100860.13;696870;28;21526;-56
2021/04/08 01:05:01;;;;;;;4.80;1.92;;;;;;;4.20;60.75;100857.56;696824;28;24331;-53
2021/04/08 01:05:22;;;;;;;4.32;1.98;;;;;;;4.19;60.80;100855.88;695621;28;46364;-49
2021/04/08 01:05:43;;;;;;;4.00;2.10;;;;;;;4.19;60.84;100861.22;696392;28;23439;-52
2021/04/08 01:06:05;;;;;;;4.88;2.10;;;;;;;4.20;60.82;100862.91;696443;28;21529;-52
2021/04/08 01:06:27;;;;;;;4.85;2.10;;;;;;;4.21;60.86;100856.56;695436;28;46173;-54
2021/04/08 01:06:48;;;;;;;3.38;1.98;;;;;;;4.20;60.76;100857.56;695976;28;47190;-52
2021/04/08 01:07:09;;;;;;;4.05;2.10;;;;;;;4.20;60.92;100860.25;696707;28;23320;-53
2021/04/08 01:07:33;;;;;;;3.42;2.03;;;;;;;4.20;60.90;100857.56;696742;28;22411;-51
2021/04/08 01:07:54;;;;;;;4.28;1.98;;;;;;;4.20;60.82;100862.06;694449;28;92173;-54
2021/04/08 01:08:15;;;;;;;4.13;1.67;;;;;;;4.17;60.93;100860.50;697010;28;22219;-51
2021/04/08 01:08:37;;;;;;;4.00;1.70;;;;;;;4.17;60.99;100851.63;696403;28;23586;-49
2021/04/08 01:08:58;;;;;;;4.05;1.92;;;;;;;4.17;60.93;100868.53;696825;28;1640;-53
2021/04/08 01:09:20;;;;;;;3.50;1.98;;;;;;;4.18;60.96;100866.69;697403;28;1227;-52
2021/04/08 01:09:41;;;;;;;2.30;2.03;;;;;;;4.18;60.96;100866.69;697395;28;10962;-49
2021/04/08 01:10:04;;;;;;;5.00;2.08;;;;;;;4.17;60.99;100865.00;696919;28;22739;-52
2021/04/08 01:10:26;;;;;;;3.67;1.90;;;;;;;4.19;60.83;100866.56;694587;28;69237;-53
2021/04/08 01:10:47;;;;;;;2.20;1.70;;;;;;;4.18;60.90;100867.53;695613;28;44454;-55
2021/04/08 01:11:08;;;;;;;2.75;2.20;;;;;;;4.18;60.86;100861.34;697619;28;1461;-52
2021/04/08 01:11:29;;;;;;;2.45;2.10;;;;;;;4.17;60.87;100873.88;697146;28;22397;-55
2021/04/08 01:11:51;;;;;;;2.42;2.10;;;;;;;4.18;60.88;100874.72;697157;28;15731;-51
2021/04/08 01:12:15;;;;;;;3.35;1.90;;;;;;;4.19;60.79;100863.88;695464;28;38321;-53
2021/04/08 01:12:36;;;;;;;4.43;1.98;;;;;;;4.18;60.83;100869.38;696788;28;23468;-49
2021/04/08 01:13:01;;;;;;;2.83;1.80;;;;;;;4.17;60.95;100863.19;696366;28;39836;-49
2021/04/08 01:13:22;;;;;;;2.67;1.95;;;;;;;4.17;60.85;100860.50;694616;28;83702;-50
2021/04/08 01:13:44;;;;;;;2.88;1.90;;;;;;;4.18;61.01;100877.38;695941;28;22454;-54
2021/04/08 01:14:05;;;;;;;4.95;2.05;;;;;;;4.17;60.97;100873.88;695471;28;46681;-58
2021/04/08 01:14:26;;;;;;;2.35;2.03;;;;;;;4.18;61.00;100867.53;696656;28;21516;-56
2021/04/08 01:14:47;;;;;;;2.20;1.80;;;;;;;4.17;60.82;100868.53;696849;28;23559;-52
2021/04/08 01:15:09;;;;;;;2.22;1.85;;;;;;;4.17;60.96;100876.56;696857;28;22374;-50
2021/04/08 01:15:31;;;;;;;4.72;2.00;;;;;;;4.18;61.00;100870.19;694961;28;69435;-54
2021/04/08 01:15:52;;;;;;;3.22;1.80;;;;;;;4.17;60.87;100881.91;695583;28;23446;-53
2021/04/08 01:16:15;;;;;;;2.53;2.00;;;;;;;4.17;60.89;100881.03;697453;28;1046;-52
2021/04/08 01:16:44;;;;;;;2.60;1.77;;;;;;;4.18;61.06;100883.56;696722;28;13464;-54
2021/04/08 01:17:12;;;;;;;3.05;1.95;;;;;;;4.20;60.71;100876.28;692875;28;125522;-55
2021/04/08 01:17:39;;;;;;;3.00;1.83;;;;;;;4.20;60.75;100883.44;692261;28;137568;-54
2021/04/08 01:18:04;;;;;;;3.03;1.90;;;;;;;4.19;60.79;100877.25;695162;28;61577;-52
2021/04/08 01:18:34;;;;;;;3.42;2.00;;;;;;;4.18;61.03;100878.22;694168;28;91480;-49
2021/04/08 01:19:00;;;;;;;2.42;1.85;;;;;;;4.17;60.84;100881.91;692431;28;138693;-51
2021/04/08 01:19:38;;;;;;;3.22;1.90;;;;;;;4.18;60.94;100880.91;693348;28;115927;-49
2021/04/08 01:20:23;;;;;;;3.88;1.90;;;;;;;4.19;60.85;100884.44;691772;28;161212;-57
2021/04/08 01:20:52;;;;;;;4.18;2.10;;;;;;;4.18;60.74;100883.56;692343;28;135814;-53
2021/04/08 01:21:19;;;;;;;2.70;2.22;;;;;;;4.19;60.90;100884.44;692257;28;134089;-57
2021/04/08 01:21:42;;;;;;;2.63;2.05;;;;;;;4.15;60.88;100884.69;692644;28;137940;-54
2021/04/08 01:22:12;;;;;;;3.63;1.88;;;;;;;4.17;60.88;100887.25;695446;28;69427;-54
2021/04/08 01:22:48;;;;;;;2.60;1.90;;;;;;;4.16;60.95;100882.88;691929;28;135934;-54
2021/04/08 01:23:55;;;;;;;2.65;1.83;;;;;;;4.17;60.97;100897.94;691862;28;137987;-57
2021/04/08 01:24:36;;;;;;;4.72;2.00;;;;;;;4.22;60.68;100882.34;691422;28;153034;-50
2021/04/08 01:25:10;;;;;;;4.72;2.00;;;;;;;4.20;60.64;100888.78;689818;28;157323;-51
2021/04/08 01:25:52;;;;;;;2.65;2.00;;;;;;;4.20;60.78;100883.44;691347;28;138303;-52
2021/04/08 01:26:39;;;;;;;6.88;2.13;;;;;;;4.19;60.68;100885.28;691147;28;138722;-49
2021/04/08 01:27:40;;;;;;;4.50;2.28;;;;;;;4.20;60.66;100880.75;691381;28;138390;-53
2021/04/08 01:28:15;;;;;;;3.47;2.05;;;;;;;4.19;60.86;100889.78;691515;28;139012;-51
2021/04/08 01:28:37;;;;;;;3.20;2.10;;;;;;;4.17;60.92;100889.91;691241;28;135905;-50
2021/04/08 01:29:03;;;;;;;4.55;2.13;;;;;;;4.16;60.79;100888.22;694060;28;67178;-51
2021/04/08 01:29:33;;;;;;;3.03;2.20;;;;;;;4.15;60.93;100881.16;691172;28;140069;-56
2021/04/08 01:30:05;;;;;;;2.78;2.10;;;;;;;4.16;60.97;100888.22;691438;28;137832;-55
2021/04/08 01:30:45;;;;;;;5.85;2.10;;;;;;;4.17;60.92;100895.25;691573;28;136149;-54
2021/04/08 01:31:08;;;;;;;2.63;1.80;;;;;;;4.17;61.02;100887.25;691306;28;135883;-51
2021/04/08 01:31:29;;;;;;;3.00;1.90;;;;;;;4.17;60.99;100889.91;693594;28;69475;-52
2021/04/08 01:31:51;;;;;;;4.28;1.90;;;;;;;4.15;61.02;100891.84;694361;28;46269;-54
2021/04/08 01:32:13;;;;;;;2.72;1.88;;;;;;;4.14;60.98;100892.84;695592;28;13226;-51
2021/04/08 01:32:39;;;;;;;4.28;1.83;;;;;;;4.14;60.96;100887.50;696031;28;1424;-50
2021/04/08 01:33:01;;;;;;;5.22;2.10;;;;;;;4.13;61.09;100891.16;692133;28;116037;-55
2021/04/08 01:33:25;;;;;;;4.07;2.00;;;;;;;4.14;61.23;100896.38;695371;28;25776;-51
2021/04/08 01:33:50;;;;;;;3.45;2.30;;;;;;;4.16;61.07;100888.22;692546;28;90858;-56
2021/04/08 01:34:13;;;;;;;3.78;2.22;;;;;;;4.18;60.98;100894.25;691817;28;116620;-52
2021/04/08 01:34:35;;;;;;;4.10;2.05;;;;;;;4.17;60.96;100892.59;694117;28;56635;-54
2021/04/08 01:34:59;;;;;;;4.18;2.08;;;;;;;4.17;61.02;100884.56;697888;28;44396;-51
2021/04/08 01:35:24;;;;;;;3.25;2.00;;;;;;;4.17;60.91;100892.59;697719;28;69410;-56
2021/04/08 01:35:48;;;;;;;2.72;1.90;;;;;;;4.16;60.89;100890.88;694547;28;138176;-54
2021/04/08 01:36:10;;;;;;;3.00;1.92;;;;;;;4.15;60.93;100899.88;697109;28;93215;-51
2021/04/08 01:36:32;;;;;;;2.17;2.00;;;;;;;4.16;60.96;100898.91;698271;28;57461;-53
2021/04/08 01:36:56;;;;;;;3.28;2.10;;;;;;;4.18;60.99;100899.63;698738;28;38027;-51
2021/04/08 01:37:22;;;;;;;3.90;2.22;;;;;;;4.20;60.87;100892.31;697617;28;72393;-49
2021/04/08 01:37:48;;;;;;;4.03;2.00;;;;;;;4.20;60.98;100891.47;695236;28;135282;-51
2021/04/08 01:38:14;;;;;;;4.15;2.10;;;;;;;4.19;61.07;100898.66;698313;28;61677;-54
2021/04/08 01:38:39;;;;;;;3.53;1.83;;;;;;;4.18;60.93;100904.97;695754;28;116005;-55
2021/04/08 01:39:03;;;;;;;2.35;2.15;;;;;;;4.18;61.08;100898.78;695462;28;137828;-52
2021/04/08 01:39:25;;;;;;;3.30;2.15;;;;;;;4.17;61.17;100897.06;696659;28;91549;-55
2021/04/08 01:39:46;;;;;;;3.90;2.20;;;;;;;4.17;61.06;100894.41;699616;28;22379;-56
2021/04/08 01:40:08;;;;;;;2.85;2.08;;;;;;;4.15;61.53;100895.41;698564;28;47792;-50
2021/04/08 01:40:30;;;;;;;3.05;1.92;;;;;;;4.14;61.29;100898.19;698397;28;45250;-54
2021/04/08 01:40:51;;;;;;;3.55;2.10;;;;;;;4.14;61.23;100891.03;698075;28;46329;-53
2021/04/08 01:41:13;;;;;;;3.78;2.10;;;;;;;4.18;61.18;100896.94;699264;28;23432;-49
2021/04/08 01:41:36;;;;;;;6.05;2.20;;;;;;;4.17;61.25;100897.06;698653;28;44376;-54
2021/04/08 01:41:58;;;;;;;3.28;1.90;;;;;;;4.15;61.26;100900.75;698379;28;55135;-51
2021/04/08 01:42:21;;;;;;;3.88;2.15;;;;;;;4.17;61.47;100899.75;699986;28;1261;-54
2021/04/08 01:42:43;;;;;;;3.78;2.20;;;;;;;4.18;61.42;100896.09;698685;28;22108;-53
2021/04/08 01:43:05;;;;;;;3.00;1.85;;;;;;;4.17;61.46;100894.41;697540;28;43533;-51
2021/04/08 01:43:29;;;;;;;3.00;1.83;;;;;;;4.13;61.37;100900.00;697983;28;45772;-54
2021/04/08 01:43:53;;;;;;;1.80;1.70;;;;;;;4.12;61.65;100895.66;695848;28;115347;-52
2021/04/08 01:44:16;;;;;;;2.35;2.00;;;;;;;4.13;61.72;100904.50;696612;28;71220;-55
2021/04/08 01:44:39;;;;;;;5.13;2.15;;;;;;;4.14;61.53;100899.03;697667;28;62595;-51
2021/04/08 01:45:01;;;;;;;3.70;2.10;;;;;;;4.14;61.59;100904.38;697190;28;82790;-52
2021/04/08 01:45:23;;;;;;;3.58;2.20;;;;;;;4.14;61.44;100901.72;699650;28;21581;-50
2021/04/08 01:45:46;;;;;;;3.25;1.80;;;;;;;4.14;61.64;100912.41;697096;28;67526;-53
2021/04/08 01:46:08;;;;;;;3.88;1.95;;;;;;;4.16;61.47;100912.28;697742;28;69483;-51
2021/04/08 01:46:29;;;;;;;3.75;1.90;;;;;;;4.17;61.39;100903.28;698967;28;22424;-56
2021/04/08 01:46:52;;;;;;;3.65;1.70;;;;;;;4.15;61.28;100908.75;698158;28;46350;-53
2021/04/08 01:47:15;;;;;;;3.08;1.83;;;;;;;4.17;61.41;100910.44;697331;28;69614;-54
2021/04/08 01:47:37;;;;;;;2.50;1.85;;;;;;;4.19;61.36;100905.81;696763;28;70405;-56
2021/04/08 01:47:58;;;;;;;3.08;1.90;;;;;;;4.20;61.25;100900.34;698368;28;46416;-54
2021/04/08 01:48:19;;;;;;;3.15;2.03;;;;;;;4.21;61.33;100901.19;698966;28;21552;-53
2021/04/08 01:48:42;;;;;;;3.60;2.03;;;;;;;4.20;61.30;100903.03;699503;28;22331;-53
2021/04/08 01:49:05;;;;;;;3.33;1.92;;;;;;;4.21;61.34;100903.84;697710;28;69286;-51
2021/04/08 01:49:28;;;;;;;3.25;2.03;;;;;;;4.20;61.23;100897.69;697738;28;70314;-56
2021/04/08 01:49:50;;;;;;;6.30;2.13;;;;;;;4.23;61.15;100899.22;696988;28;69431;-56